Time;durP1;ratioP1;P1;durP2;ratioP2;P2;SDS_P1;SDS_P2;PMS_P1;PMS_P2;Temp;Humidity;BMP_temperature;BMP_pressure;BME280_temperature;BME280_humidity;BME280_pressure;Samples;Min_cycle;Max_cycle;Signal;HPM_P1;HPM_P2
2023/12/13 00:00:36;;;;;;;19.05;6.28;;;;;;;5.77;100.00;99281.50;6051833;28;20029;-72
2023/12/13 00:03:31;;;;;;;23.80;6.72;;;;;;;5.72;100.00;99280.31;6051390;28;20508;-72
2023/12/13 00:06:28;;;;;;;21.93;6.93;;;;;;;5.73;100.00;99267.03;6051601;28;20036;-71
2023/12/13 00:09:23;;;;;;;19.25;6.45;;;;;;;5.70;100.00;99250.72;6051937;28;20069;-72
2023/12/13 00:12:18;;;;;;;23.40;6.80;;;;;;;5.80;100.00;99262.81;6051283;28;20030;-72
2023/12/13 00:15:14;;;;;;;15.23;6.60;;;;;;;5.78;100.00;99253.41;6050974;28;20029;-72
2023/12/13 00:18:09;;;;;;;19.17;6.18;;;;;;;5.78;100.00;99270.03;6051156;28;20453;-72
2023/12/13 00:21:05;;;;;;;17.60;6.13;;;;;;;5.78;100.00;99275.28;6050716;28;20029;-72
2023/12/13 00:24:00;;;;;;;19.17;6.82;;;;;;;5.73;100.00;99266.19;6051614;28;20495;-72
2023/12/13 00:26:55;;;;;;;21.30;6.57;;;;;;;5.69;100.00;99265.66;6051003;28;20038;-72
2023/12/13 00:29:51;;;;;;;21.10;7.07;;;;;;;5.68;100.00;99261.38;6050219;28;20033;-73
2023/12/13 00:32:46;;;;;;;25.87;8.07;;;;;;;5.69;100.00;99260.41;6051245;28;20065;-72
2023/12/13 00:35:41;;;;;;;18.23;6.83;;;;;;;5.76;100.00;99265.91;6050921;28;20041;-72
2023/12/13 00:38:37;;;;;;;27.23;8.20;;;;;;;5.65;100.00;99253.81;6050608;28;20060;-72
2023/12/13 00:41:33;;;;;;;24.50;8.30;;;;;;;5.71;100.00;99258.44;6050237;28;20030;-73
2023/12/13 00:44:29;;;;;;;26.17;8.38;;;;;;;5.71;100.00;99254.97;6050924;28;20030;-73
2023/12/13 00:47:24;;;;;;;24.88;7.50;;;;;;;5.68;100.00;99250.06;6050986;28;20080;-73
2023/12/13 00:50:20;;;;;;;25.13;7.73;;;;;;;5.72;100.00;99260.09;6049143;28;20069;-74
2023/12/13 00:53:15;;;;;;;27.30;7.33;;;;;;;5.67;100.00;99251.84;6050192;28;20082;-73
2023/12/13 00:56:11;;;;;;;32.07;9.47;;;;;;;5.68;100.00;99253.47;6050377;28;20036;-73
2023/12/13 00:59:06;;;;;;;21.30;7.53;;;;;;;5.72;100.00;99260.09;6049876;28;20045;-73
2023/12/13 01:02:03;;;;;;;24.80;9.00;;;;;;;5.71;100.00;99249.72;6049850;28;20065;-73
2023/12/13 01:04:58;;;;;;;26.23;7.90;;;;;;;5.69;100.00;99252.50;6050230;28;20351;-73
2023/12/13 01:07:53;;;;;;;26.40;8.17;;;;;;;5.68;100.00;99245.59;6050321;28;20400;-73
2023/12/13 01:10:49;;;;;;;28.07;9.27;;;;;;;5.66;100.00;99238.84;6047634;28;20034;-73
2023/12/13 01:13:45;;;;;;;25.77;9.07;;;;;;;5.58;100.00;99215.09;6050371;28;20037;-73
2023/12/13 01:16:40;;;;;;;24.10;8.55;;;;;;;5.65;100.00;99240.66;6050058;28;20030;-73
2023/12/13 01:19:36;;;;;;;32.80;10.03;;;;;;;5.60;100.00;99244.72;6049553;28;20404;-73
2023/12/13 01:22:31;;;;;;;22.83;8.83;;;;;;;5.56;100.00;99233.66;6049511;28;20030;-73
2023/12/13 01:25:26;;;;;;;24.97;7.97;;;;;;;5.50;100.00;99234.25;6049860;28;20030;-73
2023/12/13 01:28:21;;;;;;;28.20;8.90;;;;;;;5.46;100.00;99232.94;6050967;28;20034;-73
2023/12/13 01:31:17;;;;;;;29.07;7.70;;;;;;;5.43;100.00;99243.75;6048961;28;20067;-73
2023/12/13 01:34:12;;;;;;;23.25;8.00;;;;;;;5.33;100.00;99241.16;6081450;28;20503;-73
2023/12/13 01:37:08;;;;;;;24.80;10.00;;;;;;;5.37;100.00;99249.59;6050118;28;20037;-73
2023/12/13 01:40:04;;;;;;;20.47;8.70;;;;;;;5.37;100.00;99252.22;6049289;28;20035;-73
2023/12/13 01:42:59;;;;;;;26.33;8.13;;;;;;;5.31;100.00;99244.91;6048518;28;20042;-73
2023/12/13 01:45:56;;;;;;;30.00;9.00;;;;;;;5.33;100.00;99237.69;6050080;28;20517;-73
2023/12/13 01:48:52;;;;;;;22.17;8.50;;;;;;;5.31;100.00;99240.50;6048487;28;20037;-73
2023/12/13 01:51:47;;;;;;;23.27;8.77;;;;;;;5.28;100.00;99238.16;6047837;28;20084;-72
2023/12/13 01:54:43;;;;;;;22.42;8.00;;;;;;;5.30;100.00;99230.13;6049266;28;20108;-73
2023/12/13 01:57:39;;;;;;;22.60;7.40;;;;;;;5.29;100.00;99224.06;6047854;28;20088;-73
2023/12/13 02:00:34;;;;;;;24.33;9.45;;;;;;;5.30;100.00;99214.34;6049391;28;20044;-73
2023/12/13 02:03:30;;;;;;;19.65;8.35;;;;;;;5.38;100.00;99238.91;6044370;28;20081;-72
2023/12/13 02:06:25;;;;;;;26.67;8.43;;;;;;;5.37;100.00;99236.44;6046360;28;20465;-71
2023/12/13 02:09:22;;;;;;;27.43;10.33;;;;;;;5.31;100.00;99219.47;6047726;28;20052;-74
2023/12/13 02:12:17;;;;;;;29.92;9.70;;;;;;;5.34;100.00;99228.84;6048198;28;20984;-72
2023/12/13 02:15:13;;;;;;;26.15;9.35;;;;;;;5.32;100.00;99228.19;6045175;28;20053;-73
2023/12/13 02:18:09;;;;;;;27.80;10.25;;;;;;;5.28;100.00;99229.44;6048833;28;20444;-73
2023/12/13 02:21:06;;;;;;;23.35;9.02;;;;;;;5.33;100.00;99221.94;6048191;28;20045;-74
2023/12/13 02:24:04;;;;;;;27.50;9.70;;;;;;;5.28;100.00;99218.94;6048075;28;20113;-72
2023/12/13 02:26:59;;;;;;;25.15;8.63;;;;;;;5.30;100.00;99216.97;6049288;28;20069;-73
2023/12/13 02:29:54;;;;;;;24.50;8.73;;;;;;;5.30;100.00;99215.19;6048565;28;20045;-71
2023/12/13 02:32:50;;;;;;;29.13;9.07;;;;;;;5.34;100.00;99215.72;6046964;28;20033;-72
2023/12/13 02:35:45;;;;;;;30.30;9.43;;;;;;;5.40;100.00;99228.25;6048591;28;20116;-73
2023/12/13 02:38:41;;;;;;;28.13;9.98;;;;;;;5.35;100.00;99215.56;6048897;28;20473;-73
2023/12/13 02:41:36;;;;;;;24.83;9.37;;;;;;;5.40;100.00;99226.47;6048461;28;20488;-73
2023/12/13 02:44:31;;;;;;;28.03;10.03;;;;;;;5.43;100.00;99216.63;6047993;28;20280;-73
2023/12/13 02:47:27;;;;;;;28.60;9.73;;;;;;;5.37;100.00;99203.09;6048593;28;20481;-73
2023/12/13 02:50:22;;;;;;;25.53;8.97;;;;;;;5.41;100.00;99198.34;6051219;28;20024;-73
2023/12/13 02:53:17;;;;;;;29.10;9.43;;;;;;;5.43;100.00;99196.41;6047352;28;20538;-73
2023/12/13 02:56:12;;;;;;;22.63;8.33;;;;;;;5.52;100.00;99207.84;6048817;28;20048;-73
2023/12/13 02:59:08;;;;;;;27.93;9.40;;;;;;;5.47;100.00;99205.66;6048616;28;20037;-73
2023/12/13 03:02:03;;;;;;;25.93;8.97;;;;;;;5.53;100.00;99210.31;6048263;28;20120;-73
2023/12/13 03:05:03;;;;;;;25.87;7.97;;;;;;;5.52;100.00;99203.38;6047819;28;20100;-73
2023/12/13 03:07:58;;;;;;;26.02;10.70;;;;;;;5.52;100.00;99198.13;6048476;28;20048;-73
2023/12/13 03:10:53;;;;;;;21.73;7.77;;;;;;;5.57;100.00;99201.13;6048078;28;20034;-73
2023/12/13 03:13:49;;;;;;;21.73;10.07;;;;;;;5.59;100.00;99207.06;6047539;28;20034;-73
2023/12/13 03:16:44;;;;;;;24.40;8.70;;;;;;;5.58;100.00;99192.28;6048268;28;20304;-73
2023/12/13 03:19:39;;;;;;;25.00;9.20;;;;;;;5.57;100.00;99187.97;6050720;28;20041;-73
2023/12/13 03:22:34;;;;;;;28.10;9.30;;;;;;;5.62;100.00;99191.00;6050955;28;20493;-73
2023/12/13 03:25:30;;;;;;;24.83;9.60;;;;;;;5.62;100.00;99191.00;6051956;28;20280;-73
2023/12/13 03:28:25;;;;;;;26.77;9.35;;;;;;;5.62;100.00;99188.38;6052783;28;20026;-73
2023/12/13 03:31:21;;;;;;;36.07;12.30;;;;;;;5.64;100.00;99183.78;6052049;28;20049;-73
2023/12/13 03:34:16;;;;;;;30.52;10.63;;;;;;;5.70;100.00;99192.88;6051958;28;20101;-73
2023/12/13 03:37:11;;;;;;;30.02;10.02;;;;;;;5.71;100.00;99190.06;6051964;28;20037;-73
2023/12/13 03:40:07;;;;;;;25.17;9.50;;;;;;;5.69;100.00;99181.50;6052124;28;20509;-73
2023/12/13 03:43:03;;;;;;;40.38;9.55;;;;;;;5.73;100.00;99188.13;6051394;28;20363;-73
2023/12/13 03:45:58;;;;;;;21.45;8.65;;;;;;;5.72;100.00;99186.47;6048715;28;20030;-72
2023/12/13 03:48:54;;;;;;;19.20;7.97;;;;;;;5.79;100.00;99176.16;6052437;28;20037;-72
2023/12/13 03:51:49;;;;;;;20.23;6.93;;;;;;;5.78;100.00;99182.41;6051994;28;20037;-72
2023/12/13 03:54:47;;;;;;;18.20;6.90;;;;;;;5.75;100.00;99183.53;6052104;28;20120;-72
2023/12/13 03:57:42;;;;;;;15.52;6.97;;;;;;;5.77;100.00;99192.09;6059410;28;20056;-72
2023/12/13 04:00:38;;;;;;;16.13;6.97;;;;;;;5.76;100.00;99190.44;6051019;28;20038;-72
2023/12/13 04:03:34;;;;;;;13.17;6.70;;;;;;;5.68;100.00;99194.84;6051318;28;20042;-73
2023/12/13 04:06:29;;;;;;;12.35;5.57;;;;;;;5.75;100.00;99195.84;6050679;28;20034;-73
2023/12/13 04:09:25;;;;;;;15.70;5.73;;;;;;;5.77;100.00;99176.31;6051564;28;20076;-73
2023/12/13 04:12:20;;;;;;;16.80;6.43;;;;;;;5.82;100.00;99181.09;6051730;28;20759;-73
2023/12/13 04:15:15;;;;;;;14.40;5.70;;;;;;;5.68;100.00;99185.09;6081784;28;20625;-73
2023/12/13 04:18:11;;;;;;;14.37;6.10;;;;;;;5.71;100.00;99183.97;6050979;28;20419;-72
2023/12/13 04:21:06;;;;;;;15.10;6.03;;;;;;;5.74;100.00;99187.13;6051155;28;20041;-73
2023/12/13 04:24:02;;;;;;;13.73;5.85;;;;;;;5.78;100.00;99198.19;6051371;28;20042;-73
2023/12/13 04:26:57;;;;;;;23.15;6.05;;;;;;;5.77;100.00;99191.25;6050523;28;20034;-73
2023/12/13 04:29:53;;;;;;;17.13;7.17;;;;;;;5.67;100.00;99198.44;6053405;28;20030;-73
2023/12/13 04:32:48;;;;;;;18.23;6.65;;;;;;;5.75;100.00;99185.34;6050113;28;20492;-73
2023/12/13 04:35:45;;;;;;;18.47;6.23;;;;;;;5.79;100.00;99192.75;6050451;28;20049;-73
2023/12/13 04:38:40;;;;;;;17.77;7.10;;;;;;;5.81;100.00;99182.94;6051287;28;20036;-73
2023/12/13 04:41:38;;;;;;;13.50;5.67;;;;;;;5.89;100.00;99188.28;6050208;28;20041;-72
2023/12/13 04:44:33;;;;;;;11.70;5.50;;;;;;;5.83;100.00;99190.66;6049850;28;20052;-72
2023/12/13 04:47:29;;;;;;;13.37;5.87;;;;;;;5.87;100.00;99181.53;6051030;28;20041;-73
2023/12/13 04:50:24;;;;;;;15.23;6.90;;;;;;;5.76;100.00;99182.53;6050698;28;20045;-72
2023/12/13 04:53:19;;;;;;;15.07;6.10;;;;;;;5.70;100.00;99177.09;6049482;28;20100;-73
2023/12/13 04:56:14;;;;;;;15.00;6.13;;;;;;;5.74;100.00;99184.50;6049544;28;20083;-72
2023/12/13 04:59:10;;;;;;;9.57;5.37;;;;;;;5.72;100.00;99169.88;6050283;28;20095;-73
2023/12/13 05:02:06;;;;;;;12.20;6.10;;;;;;;5.82;100.00;99175.84;6050367;28;20030;-72
2023/12/13 05:05:01;;;;;;;18.80;6.40;;;;;;;5.79;100.00;99173.50;6049409;28;20041;-72
2023/12/13 05:07:56;;;;;;;15.97;6.27;;;;;;;5.76;100.00;99163.34;6050249;28;20038;-73
2023/12/13 05:10:52;;;;;;;14.20;6.23;;;;;;;5.93;100.00;99184.34;6050750;28;20036;-73
2023/12/13 05:13:47;;;;;;;12.30;5.13;;;;;;;6.05;100.00;99192.00;6050514;28;20033;-73
2023/12/13 05:16:42;;;;;;;11.70;4.83;;;;;;;6.05;100.00;99186.72;6049551;28;20038;-73
2023/12/13 05:19:38;;;;;;;11.83;5.47;;;;;;;6.07;100.00;99176.88;6049757;28;20088;-73
2023/12/13 05:22:33;;;;;;;8.70;4.47;;;;;;;6.13;100.00;99178.88;6050280;28;20029;-73
2023/12/13 05:25:28;;;;;;;13.07;4.63;;;;;;;6.18;100.00;99180.06;6048312;28;20037;-73
2023/12/13 05:28:24;;;;;;;13.63;4.87;;;;;;;6.25;100.00;99188.97;6050684;28;20493;-73
2023/12/13 05:31:20;;;;;;;10.00;4.50;;;;;;;6.27;100.00;99175.69;6049491;28;20022;-73
2023/12/13 05:34:15;;;;;;;10.38;4.78;;;;;;;6.33;100.00;99181.13;6049497;28;20613;-73
2023/12/13 05:37:10;;;;;;;9.17;4.17;;;;;;;6.31;100.00;99183.09;6049297;28;20029;-73
2023/12/13 05:40:06;;;;;;;8.27;4.60;;;;;;;6.25;100.00;99186.34;6049219;28;20041;-73
2023/12/13 05:43:02;;;;;;;11.98;5.00;;;;;;;6.22;100.00;99175.31;6049458;28;20516;-72
2023/12/13 05:45:59;;;;;;;13.83;5.30;;;;;;;6.29;100.00;99173.72;6049609;28;20037;-73
2023/12/13 05:48:55;;;;;;;9.65;4.88;;;;;;;6.19;100.00;99178.25;6049019;28;20312;-73
2023/12/13 05:51:50;;;;;;;12.52;5.10;;;;;;;6.26;100.00;99187.19;6054707;28;20049;-73
2023/12/13 05:54:48;;;;;;;10.80;5.13;;;;;;;6.38;100.00;99185.94;6048923;28;20030;-72
2023/12/13 05:57:43;;;;;;;10.95;4.72;;;;;;;6.49;100.00;99186.50;6050585;28;20034;-73
2023/12/13 06:00:39;;;;;;;11.20;4.70;;;;;;;6.48;100.00;99189.28;6048285;28;20492;-73
2023/12/13 06:03:34;;;;;;;9.13;4.57;;;;;;;6.58;100.00;99189.97;6046668;28;20549;-73
2023/12/13 06:06:29;;;;;;;11.90;5.00;;;;;;;6.62;100.00;99195.75;6044666;28;20311;-73
2023/12/13 06:09:25;;;;;;;9.73;4.30;;;;;;;6.56;100.00;99176.97;6048142;28;20034;-73
2023/12/13 06:12:20;;;;;;;9.25;4.13;;;;;;;6.66;100.00;99192.63;6048977;28;20509;-73
2023/12/13 06:15:16;;;;;;;11.77;4.80;;;;;;;6.68;100.00;99195.97;6048725;28;20030;-73
2023/12/13 06:18:11;;;;;;;9.40;4.07;;;;;;;6.57;100.00;99189.16;6048823;28;20864;-73
2023/12/13 06:21:07;;;;;;;11.20;4.60;;;;;;;6.57;100.00;99183.91;6048090;28;21021;-72
2023/12/13 06:24:04;;;;;;;10.23;4.70;;;;;;;6.64;100.00;99184.06;6050284;28;20272;-73
2023/12/13 06:26:59;;;;;;;10.68;5.47;;;;;;;6.77;100.00;99186.25;6040062;28;20044;-73
2023/12/13 06:29:54;;;;;;;10.70;5.43;;;;;;;6.69;100.00;99191.47;6048538;28;20045;-73
2023/12/13 06:32:50;;;;;;;7.67;4.27;;;;;;;6.71;100.00;99195.63;6050485;28;20037;-73
2023/12/13 06:35:45;;;;;;;10.67;4.57;;;;;;;6.73;100.00;99183.13;6048748;28;20040;-73
2023/12/13 06:38:40;;;;;;;9.77;4.03;;;;;;;6.80;100.00;99186.75;6047896;28;20547;-73
2023/12/13 06:41:36;;;;;;;11.70;4.30;;;;;;;6.82;100.00;99179.50;6048204;28;20291;-73
2023/12/13 06:44:32;;;;;;;8.32;3.88;;;;;;;6.84;100.00;99185.47;6049077;28;20104;-72
2023/12/13 06:47:28;;;;;;;9.80;3.70;;;;;;;6.85;100.00;99192.38;6048242;28;20100;-73
2023/12/13 06:50:24;;;;;;;8.10;3.80;;;;;;;6.64;100.00;99189.34;6046827;28;20281;-73
2023/12/13 06:53:19;;;;;;;7.72;4.10;;;;;;;6.58;100.00;99179.44;6046987;28;20037;-72
2023/12/13 06:56:17;;;;;;;10.27;4.10;;;;;;;6.69;100.00;99189.69;6053253;28;20378;-73
2023/12/13 06:59:12;;;;;;;7.05;3.60;;;;;;;6.70;100.00;99183.44;6052253;28;20085;-73
2023/12/13 07:02:08;;;;;;;6.43;3.13;;;;;;;6.82;100.00;99192.69;6052808;28;20388;-72
2023/12/13 07:05:03;;;;;;;6.20;3.07;;;;;;;6.85;100.00;99189.75;6030838;28;20033;-72
2023/12/13 07:07:59;;;;;;;7.05;3.03;;;;;;;6.85;100.00;99192.38;6023936;28;20085;-72
2023/12/13 07:10:54;;;;;;;7.57;3.63;;;;;;;6.87;100.00;99193.06;6029577;28;20034;-73
2023/12/13 07:13:50;;;;;;;7.33;3.57;;;;;;;6.85;100.00;99194.22;6027189;28;20045;-74
2023/12/13 07:16:45;;;;;;;6.25;3.47;;;;;;;6.74;100.00;99210.31;6028397;28;20035;-72
2023/12/13 07:19:41;;;;;;;7.50;3.72;;;;;;;6.64;100.00;99201.69;6027883;28;20109;-73
2023/12/13 07:22:36;;;;;;;12.87;4.07;;;;;;;6.59;100.00;99204.78;6028732;28;20034;-72
2023/12/13 07:25:31;;;;;;;9.20;3.78;;;;;;;6.46;100.00;99199.13;6027677;28;20386;-73
2023/12/13 07:28:27;;;;;;;11.03;4.20;;;;;;;6.65;100.00;99217.34;6026242;28;20038;-73
2023/12/13 07:31:23;;;;;;;10.50;4.50;;;;;;;6.66;100.00;99208.44;6034221;28;20033;-72
2023/12/13 07:34:19;;;;;;;9.20;4.15;;;;;;;6.70;100.00;99224.75;6024110;28;20058;-73
2023/12/13 07:37:15;;;;;;;8.65;4.10;;;;;;;6.67;100.00;99215.38;6026086;28;20069;-73
2023/12/13 07:40:10;;;;;;;10.40;4.33;;;;;;;6.67;100.00;99219.81;6027809;28;20038;-73
2023/12/13 07:43:06;;;;;;;9.27;4.55;;;;;;;6.73;100.00;99225.28;6028255;28;20496;-73
2023/12/13 07:46:01;;;;;;;9.77;4.70;;;;;;;6.71;100.00;99221.97;6022883;28;20030;-74
2023/12/13 07:49:03;;;;;;;9.23;4.90;;;;;;;6.62;100.00;99220.28;6027947;28;20030;-74
2023/12/13 07:51:58;;;;;;;12.45;4.32;;;;;;;6.70;100.00;99219.50;6022481;28;20325;-74
2023/12/13 07:54:55;;;;;;;9.67;3.90;;;;;;;6.61;100.00;99213.34;6027713;28;20088;-73
2023/12/13 07:57:50;;;;;;;9.88;4.72;;;;;;;6.63;100.00;99219.31;6019346;28;20292;-73
2023/12/13 08:00:45;;;;;;;10.53;4.93;;;;;;;6.72;100.00;99218.34;6020666;28;20074;-72
2023/12/13 08:03:41;;;;;;;9.33;4.10;;;;;;;6.81;100.00;99221.84;6036235;28;20034;-72
2023/12/13 08:06:36;;;;;;;8.60;4.10;;;;;;;6.89;100.00;99227.97;6050521;28;20061;-71
2023/12/13 08:09:31;;;;;;;9.63;3.90;;;;;;;6.88;100.00;99228.13;6052539;28;20363;-72
2023/12/13 08:12:26;;;;;;;8.93;4.53;;;;;;;6.94;100.00;99223.03;6051215;28;20041;-72
2023/12/13 08:15:22;;;;;;;8.53;3.97;;;;;;;6.91;100.00;99218.09;6051556;28;20033;-73
2023/12/13 08:18:17;;;;;;;10.30;4.70;;;;;;;6.81;100.00;99225.31;6051827;28;20036;-72
2023/12/13 08:21:12;;;;;;;9.67;4.17;;;;;;;6.78;100.00;99227.41;6051637;28;20033;-72
2023/12/13 08:24:09;;;;;;;7.77;4.27;;;;;;;6.90;100.00;99232.22;6051486;28;20125;-72
2023/12/13 08:27:05;;;;;;;14.05;6.53;;;;;;;6.88;100.00;99228.13;6051505;28;20297;-73
2023/12/13 08:30:00;;;;;;;9.80;4.93;;;;;;;6.97;100.00;99232.44;6051443;28;20084;-73
2023/12/13 08:32:56;;;;;;;9.77;4.70;;;;;;;7.05;100.00;99225.38;6051080;28;20033;-72
2023/12/13 08:35:51;;;;;;;9.77;4.17;;;;;;;7.11;100.00;99235.28;6051195;28;20735;-72
2023/12/13 08:38:46;;;;;;;9.65;4.75;;;;;;;7.30;100.00;99233.34;6051441;28;20037;-73
2023/12/13 08:41:42;;;;;;;7.50;3.90;;;;;;;7.47;100.00;99232.41;6050453;28;20041;-73
2023/12/13 08:44:37;;;;;;;10.90;4.97;;;;;;;7.31;100.00;99245.56;6051079;28;20538;-72
2023/12/13 08:47:32;;;;;;;8.37;4.13;;;;;;;7.25;100.00;99238.28;6051229;28;20444;-72
2023/12/13 08:50:28;;;;;;;9.57;4.10;;;;;;;7.32;100.00;99236.66;6051318;28;20049;-72
2023/12/13 08:53:24;;;;;;;8.43;4.37;;;;;;;7.55;100.00;99248.25;6050497;28;20137;-72
2023/12/13 08:56:19;;;;;;;9.27;4.55;;;;;;;7.61;100.00;99243.13;6050795;28;20048;-73
2023/12/13 08:59:14;;;;;;;10.65;4.13;;;;;;;7.29;100.00;99234.34;6051451;28;20038;-72
2023/12/13 09:02:10;;;;;;;11.80;4.47;;;;;;;7.40;100.00;99244.56;6050427;28;20554;-72
2023/12/13 09:05:06;;;;;;;11.83;5.10;;;;;;;7.48;100.00;99236.69;6033909;28;20054;-72
2023/12/13 09:08:01;;;;;;;9.57;5.03;;;;;;;7.73;100.00;99246.28;6027080;28;20030;-73
2023/12/13 09:10:56;;;;;;;9.18;4.95;;;;;;;7.88;100.00;99241.97;6026342;28;20117;-72
2023/12/13 09:13:52;;;;;;;8.67;3.93;;;;;;;7.57;100.00;99257.66;6026232;28;20393;-72
2023/12/13 09:16:47;;;;;;;12.87;6.43;;;;;;;7.48;100.00;99257.78;6026761;28;20359;-74
2023/12/13 09:19:43;;;;;;;10.97;4.67;;;;;;;7.52;100.00;99254.66;6026918;28;20389;-73
2023/12/13 09:22:38;;;;;;;10.50;4.97;;;;;;;7.55;100.00;99258.78;6026435;28;20030;-74
2023/12/13 09:25:34;;;;;;;12.97;5.80;;;;;;;7.56;100.00;99266.53;6025262;28;20081;-73
2023/12/13 09:28:29;;;;;;;11.60;4.47;;;;;;;7.52;100.00;99259.94;6026553;28;20367;-74
2023/12/13 09:31:25;;;;;;;11.77;6.07;;;;;;;7.65;100.00;99272.66;6026128;28;20110;-74
2023/12/13 09:34:21;;;;;;;14.65;6.53;;;;;;;7.72;100.00;99276.28;6025719;28;20014;-74
2023/12/13 09:37:16;;;;;;;11.73;6.28;;;;;;;7.55;100.00;99266.72;6026476;28;20073;-74
2023/12/13 09:40:16;;;;;;;14.20;6.88;;;;;;;7.60;100.00;99274.94;6026244;28;20030;-73
2023/12/13 09:43:12;;;;;;;11.50;5.65;;;;;;;7.63;100.00;99278.09;6025926;28;20060;-74
2023/12/13 09:46:13;;;;;;;11.13;5.22;;;;;;;7.77;100.00;99284.56;6025520;28;20042;-72
2023/12/13 09:49:09;;;;;;;13.32;6.38;;;;;;;7.78;100.00;99287.00;6021901;28;20034;-72
2023/12/13 09:52:05;;;;;;;12.85;5.93;;;;;;;7.76;100.00;99277.63;6025585;28;20053;-73
2023/12/13 09:55:01;;;;;;;13.90;5.30;;;;;;;7.68;100.00;99269.69;6025319;28;20034;-73
2023/12/13 09:57:56;;;;;;;10.75;5.07;;;;;;;7.74;100.00;99279.59;6026108;28;20104;-73
2023/12/13 10:00:52;;;;;;;12.20;4.85;;;;;;;7.84;100.00;99268.88;6025339;28;20088;-73
2023/12/13 10:03:47;;;;;;;9.45;4.45;;;;;;;8.02;100.00;99262.44;6034304;28;20080;-73
2023/12/13 10:06:45;;;;;;;9.82;4.60;;;;;;;8.19;100.00;99258.81;6049247;28;20131;-75
2023/12/13 10:09:40;;;;;;;10.75;5.22;;;;;;;8.40;100.00;99260.94;6049793;28;20388;-73
2023/12/13 10:12:37;;;;;;;11.07;5.00;;;;;;;8.45;100.00;99263.09;6049203;28;20038;-73
2023/12/13 10:15:33;;;;;;;9.68;4.50;;;;;;;8.52;100.00;99264.06;6048703;28;20030;-74
2023/12/13 10:18:30;;;;;;;9.30;4.43;;;;;;;8.62;100.00;99254.13;6049585;28;20032;-73
2023/12/13 10:21:25;;;;;;;8.15;3.97;;;;;;;8.63;100.00;99266.34;6048762;28;20025;-72
2023/12/13 10:24:21;;;;;;;11.05;4.28;;;;;;;8.62;100.00;99259.41;6049199;28;20519;-73
2023/12/13 10:27:16;;;;;;;9.10;4.17;;;;;;;8.58;100.00;99264.22;6049216;28;20053;-73
2023/12/13 10:30:12;;;;;;;7.80;3.75;;;;;;;8.89;100.00;99257.19;6053397;28;20388;-73
2023/12/13 10:33:08;;;;;;;10.10;4.22;;;;;;;8.61;100.00;99252.50;6048770;28;20603;-74
2023/12/13 10:36:04;;;;;;;10.87;4.53;;;;;;;8.67;100.00;99267.69;6048797;28;20030;-73
2023/12/13 10:39:00;;;;;;;8.85;3.83;;;;;;;8.81;100.00;99259.03;6049323;28;20271;-73
2023/12/13 10:41:56;;;;;;;9.23;3.28;;;;;;;8.67;100.00;99260.56;6048550;28;20385;-73
2023/12/13 10:44:52;;;;;;;9.25;3.58;;;;;;;8.70;100.00;99267.31;6048979;28;20119;-73
2023/12/13 10:47:49;;;;;;;7.65;3.80;;;;;;;8.75;100.00;99265.00;6048987;28;20465;-73
2023/12/13 10:50:45;;;;;;;12.43;3.65;;;;;;;8.60;100.00;99271.97;6045074;28;20465;-73
2023/12/13 10:53:41;;;;;;;6.82;2.92;;;;;;;8.44;100.00;99277.28;6048369;28;20021;-74
2023/12/13 10:56:37;;;;;;;9.82;3.88;;;;;;;8.56;100.00;99270.69;6048684;28;20496;-74
2023/12/13 10:59:33;;;;;;;7.10;3.22;;;;;;;8.52;100.00;99264.06;6048665;28;20079;-74
2023/12/13 11:02:33;;;;;;;10.70;3.58;;;;;;;8.66;100.00;99271.31;6047878;28;20038;-73
2023/12/13 11:05:28;;;;;;;6.75;3.13;;;;;;;8.63;100.00;99266.34;6077015;28;20061;-73
2023/12/13 11:08:24;;;;;;;7.72;3.55;;;;;;;8.63;100.00;99261.91;6046493;28;20480;-73
2023/12/13 11:11:26;;;;;;;5.27;2.80;;;;;;;8.73;100.00;99262.53;6049428;28;20033;-73
2023/12/13 11:14:25;;;;;;;6.60;3.00;;;;;;;8.72;100.00;99281.19;6047156;28;20465;-73
2023/12/13 11:17:21;;;;;;;7.30;2.83;;;;;;;8.63;100.00;99279.56;6049282;28;20082;-72
2023/12/13 11:20:17;;;;;;;6.50;3.15;;;;;;;8.57;100.00;99267.84;6050137;28;20032;-73
2023/12/13 11:23:14;;;;;;;6.53;2.97;;;;;;;8.66;100.00;99266.00;6047278;28;20037;-72
2023/12/13 11:26:16;;;;;;;9.88;3.30;;;;;;;8.65;100.00;99281.03;6045081;28;20038;-73
2023/12/13 11:29:23;;;;;;;10.13;4.75;;;;;;;8.61;100.00;99278.91;6042431;28;20104;-72
2023/12/13 11:32:31;;;;;;;;;;;;;;;8.54;100.00;99280.56;6050228;28;20037;-72
2023/12/13 11:35:30;;;;;;;9.73;4.85;;;;;;;8.40;100.00;99281.28;6048638;28;19921;-73
2023/12/13 11:38:26;;;;;;;9.55;4.05;;;;;;;8.35;100.00;99285.22;6046499;28;20030;-74
2023/12/13 11:41:21;;;;;;;8.55;3.42;;;;;;;8.33;100.00;99271.38;6048155;28;20065;-72
2023/12/13 11:44:17;;;;;;;12.02;4.57;;;;;;;8.30;100.00;99282.25;6053238;28;20079;-73
2023/12/13 11:47:13;;;;;;;15.93;6.80;;;;;;;8.24;100.00;99282.91;6057806;28;20036;-72
2023/12/13 11:50:10;;;;;;;6.80;3.60;;;;;;;8.26;100.00;99291.47;6050942;28;20033;-72
2023/12/13 11:53:09;;;;;;;7.38;3.50;;;;;;;8.21;100.00;99277.94;6050505;28;20063;-72
2023/12/13 11:56:09;;;;;;;7.63;3.58;;;;;;;8.22;100.00;99276.13;6047850;28;20038;-73
2023/12/13 11:59:04;;;;;;;14.23;7.22;;;;;;;8.26;100.00;99278.25;6049055;28;20079;-73
2023/12/13 12:02:00;;;;;;;11.80;4.47;;;;;;;8.42;100.00;99285.41;6062800;28;20428;-73
2023/12/13 12:04:55;;;;;;;6.10;3.55;;;;;;;8.37;100.00;99287.69;6052000;28;20033;-73
2023/12/13 12:08:02;;;;;;;5.03;2.97;;;;;;;8.31;100.00;99278.66;6058515;28;20077;-73
2023/12/13 12:10:57;;;;;;;5.53;2.90;;;;;;;8.34;100.00;99291.50;6054887;28;20136;-73
2023/12/13 12:13:55;;;;;;;4.60;2.60;;;;;;;8.32;100.00;99288.19;6068126;28;20464;-73
2023/12/13 12:16:50;;;;;;;6.45;2.85;;;;;;;8.32;100.00;99295.28;6049415;28;20083;-73
2023/12/13 12:19:47;;;;;;;8.53;3.73;;;;;;;8.28;100.00;99289.53;6078563;28;20041;-73
2023/12/13 12:22:42;;;;;;;8.30;3.90;;;;;;;8.27;100.00;99293.16;6054644;28;20034;-73
2023/12/13 12:25:39;;;;;;;7.80;3.30;;;;;;;8.29;100.00;99288.53;6059410;28;20396;-73
2023/12/13 12:28:35;;;;;;;5.55;2.92;;;;;;;8.18;100.00;99283.56;6058380;28;20347;-73
2023/12/13 12:31:31;;;;;;;6.30;2.30;;;;;;;8.19;100.00;99290.50;6053740;28;20054;-72
2023/12/13 12:34:26;;;;;;;4.72;2.95;;;;;;;8.26;100.00;99293.31;6055600;28;20488;-72
2023/12/13 12:37:22;;;;;;;7.90;3.10;;;;;;;8.22;100.00;99278.78;6059076;28;20213;-73
2023/12/13 12:40:17;;;;;;;6.13;2.53;;;;;;;8.31;100.00;99291.84;6050167;28;20041;-73
2023/12/13 12:43:14;;;;;;;5.15;2.60;;;;;;;8.35;100.00;99295.78;6048915;28;20028;-73
2023/12/13 12:46:11;;;;;;;3.67;1.85;;;;;;;8.28;100.00;99292.19;6088603;28;20064;-73
2023/12/13 12:49:07;;;;;;;4.57;1.90;;;;;;;8.18;100.00;99288.81;6057111;28;20037;-73
2023/12/13 12:52:03;;;;;;;6.70;2.15;;;;;;;8.05;100.00;99290.31;6053519;28;20029;-73
2023/12/13 12:54:58;;;;;;;4.72;1.85;;;;;;;8.16;100.00;99288.19;6057657;28;20030;-73
2023/12/13 12:57:53;;;;;;;5.40;2.20;;;;;;;8.30;100.00;99303.41;6054007;28;20058;-74
2023/12/13 13:00:48;;;;;;;4.87;2.57;;;;;;;8.46;100.00;99312.28;6050571;28;20650;-73
2023/12/13 13:03:44;;;;;;;5.70;2.00;;;;;;;8.44;100.00;99299.25;6051746;28;20042;-73
2023/12/13 13:06:41;;;;;;;6.30;2.08;;;;;;;8.29;100.00;99307.00;6025407;28;20073;-73
2023/12/13 13:09:36;;;;;;;3.38;1.80;;;;;;;8.38;100.00;99311.31;6025705;28;20034;-73
2023/12/13 13:12:31;;;;;;;3.83;2.10;;;;;;;8.48;100.00;99305.03;6024553;28;20038;-72
2023/12/13 13:15:27;;;;;;;5.67;2.10;;;;;;;8.41;100.00;99309.31;6024298;28;20047;-72
2023/12/13 13:18:22;;;;;;;5.87;2.07;;;;;;;8.52;100.00;99314.25;6026195;28;20484;-73
2023/12/13 13:21:17;;;;;;;4.77;1.73;;;;;;;8.51;100.00;99320.53;6024997;28;20278;-73
2023/12/13 13:24:13;;;;;;;4.93;2.00;;;;;;;8.46;100.00;99314.91;6025018;28;20038;-72
2023/12/13 13:27:08;;;;;;;3.97;2.03;;;;;;;8.49;100.00;99322.50;6023771;28;20566;-73
2023/12/13 13:30:05;;;;;;;6.43;2.17;;;;;;;8.47;100.00;99316.59;6019914;28;20111;-73
2023/12/13 13:33:00;;;;;;;5.25;2.00;;;;;;;8.59;100.00;99325.81;6024372;28;20453;-73
2023/12/13 13:35:56;;;;;;;4.35;2.20;;;;;;;8.54;100.00;99320.19;6025391;28;20029;-73
2023/12/13 13:38:51;;;;;;;4.27;1.97;;;;;;;8.59;100.00;99323.19;6026049;28;20030;-72
2023/12/13 13:41:46;;;;;;;4.00;1.60;;;;;;;8.65;100.00;99333.06;6024301;28;20080;-73